Accueil
METAR-TAF:

METAR-TAF

Aéroports :

Vijayawada, Inde

latitude: 16-31-44N, longitude: 80-47-45E, altitude: 25 m

Observation

Le bulletin a été fait il y a 20 minutes, à 05:00 UTC
Vent 10 kt de ouest/nord-ouest
Température 35°C
Humidité 47%
Pression 1002 hPa
Visibilité: 6000 m
Nuages épars à une hauteur de 2000 ft
Nuages épars à une hauteur de 10000 ft

METAR: VOBZ 100500Z 29010KT 6000 SCT020 SCT100 35/22 Q1002 NOSIG

Heure: 10:50 (05:20 UTC)

Prévision

Le bulletin a été fait il y a 3 heures et 20 minutes, à 02:00 UTC
Prévision valable du 10 à 03 UTC au 10 à 12 UTC
Vent 12 kt de ouest
Visibilité: 6000 m
Nuages épars à une hauteur de 2000 ft
Nuages épars à une hauteur de 10000 ft
Temporairement
du 10 à 10 UTC au 10 à 12 UTC
Quelques nuages à une hauteur de 3000 ft, Cumulonimbus.

TAF: VOBZ 100200Z 1003/1012 28012KT 6000 SCT020 SCT100 TEMPO 1010/1012 FEW030CB

Observations et prévisions météorologiques de plus de 4000 aéroports (messages METAR et TAF).

Les stations disponibles sont représentées par des disques jaunes et rouges sur la carte.

Passer la souris dessus pour voir le nom de la station.

Cliquer dessus pour voir les observations et prévisions météorologiques.

Pour changer de carte: cliquez sur les boutons verts avec une croix noire pour zoomer, sur le bouton vert avec un tiret pour effectuer un zoom arrière, ou sur les flèches vertes pour les cartes adjacentes.


METAR-TAF: